sensor_id;sensor_type;location;lat;lon;timestamp;P1;durP1;ratioP1;P2;durP2;ratioP2
3405;SDS011;10008;48.682;9.016;2023-10-31T00:00:39;23.10;;;21.60;;
3405;SDS011;10008;48.682;9.016;2023-10-31T00:03:05;23.97;;;22.37;;
3405;SDS011;10008;48.682;9.016;2023-10-31T00:05:30;22.77;;;21.27;;
3405;SDS011;10008;48.682;9.016;2023-10-31T00:07:56;24.53;;;23.03;;
3405;SDS011;10008;48.682;9.016;2023-10-31T00:10:22;24.93;;;23.33;;
3405;SDS011;10008;48.682;9.016;2023-10-31T00:12:47;27.97;;;26.07;;
3405;SDS011;10008;48.682;9.016;2023-10-31T00:15:13;27.77;;;25.87;;
3405;SDS011;10008;48.682;9.016;2023-10-31T00:17:39;28.70;;;27.00;;
3405;SDS011;10008;48.682;9.016;2023-10-31T00:20:05;27.70;;;26.00;;
3405;SDS011;10008;48.682;9.016;2023-10-31T00:22:31;17.20;;;16.07;;
3405;SDS011;10008;48.682;9.016;2023-10-31T00:24:57;16.97;;;15.77;;
3405;SDS011;10008;48.682;9.016;2023-10-31T00:27:23;17.40;;;16.20;;
3405;SDS011;10008;48.682;9.016;2023-10-31T00:29:48;17.07;;;15.87;;
3405;SDS011;10008;48.682;9.016;2023-10-31T00:32:14;18.00;;;16.70;;
3405;SDS011;10008;48.682;9.016;2023-10-31T00:34:40;17.40;;;16.20;;
3405;SDS011;10008;48.682;9.016;2023-10-31T00:37:05;17.70;;;16.50;;
3405;SDS011;10008;48.682;9.016;2023-10-31T00:39:31;18.30;;;17.00;;
3405;SDS011;10008;48.682;9.016;2023-10-31T00:41:59;16.77;;;15.67;;
3405;SDS011;10008;48.682;9.016;2023-10-31T00:44:24;16.80;;;15.60;;
3405;SDS011;10008;48.682;9.016;2023-10-31T00:46:50;16.10;;;14.90;;
3405;SDS011;10008;48.682;9.016;2023-10-31T00:49:17;16.33;;;15.13;;
3405;SDS011;10008;48.682;9.016;2023-10-31T00:51:43;16.23;;;15.00;;
3405;SDS011;10008;48.682;9.016;2023-10-31T00:54:08;15.53;;;14.43;;
3405;SDS011;10008;48.682;9.016;2023-10-31T00:56:34;14.70;;;13.70;;
3405;SDS011;10008;48.682;9.016;2023-10-31T00:59:00;14.87;;;13.70;;
3405;SDS011;10008;48.682;9.016;2023-10-31T01:01:27;15.80;;;14.63;;
3405;SDS011;10008;48.682;9.016;2023-10-31T01:03:52;15.67;;;14.47;;
3405;SDS011;10008;48.682;9.016;2023-10-31T01:06:18;15.23;;;14.13;;
3405;SDS011;10008;48.682;9.016;2023-10-31T01:08:45;15.87;;;14.60;;
3405;SDS011;10008;48.682;9.016;2023-10-31T01:11:10;15.83;;;14.63;;
3405;SDS011;10008;48.682;9.016;2023-10-31T01:13:36;15.80;;;14.70;;
3405;SDS011;10008;48.682;9.016;2023-10-31T01:16:02;15.27;;;14.17;;
3405;SDS011;10008;48.682;9.016;2023-10-31T01:18:30;15.30;;;14.20;;
3405;SDS011;10008;48.682;9.016;2023-10-31T01:20:55;15.17;;;14.07;;
3405;SDS011;10008;48.682;9.016;2023-10-31T01:23:21;15.07;;;13.87;;
3405;SDS011;10008;48.682;9.016;2023-10-31T01:25:48;14.90;;;13.77;;
3405;SDS011;10008;48.682;9.016;2023-10-31T01:28:13;14.67;;;13.50;;
3405;SDS011;10008;48.682;9.016;2023-10-31T01:30:39;14.60;;;13.60;;
3405;SDS011;10008;48.682;9.016;2023-10-31T01:33:05;15.00;;;13.90;;
3405;SDS011;10008;48.682;9.016;2023-10-31T01:35:30;15.10;;;13.90;;
3405;SDS011;10008;48.682;9.016;2023-10-31T01:37:56;15.47;;;14.37;;
3405;SDS011;10008;48.682;9.016;2023-10-31T01:40:22;15.00;;;14.00;;
3405;SDS011;10008;48.682;9.016;2023-10-31T01:42:47;14.47;;;13.47;;
3405;SDS011;10008;48.682;9.016;2023-10-31T01:45:13;14.30;;;13.30;;
3405;SDS011;10008;48.682;9.016;2023-10-31T01:47:39;14.47;;;13.30;;
3405;SDS011;10008;48.682;9.016;2023-10-31T01:50:06;13.90;;;12.70;;
3405;SDS011;10008;48.682;9.016;2023-10-31T01:52:32;13.57;;;12.60;;
3405;SDS011;10008;48.682;9.016;2023-10-31T01:55:01;13.70;;;12.70;;
3405;SDS011;10008;48.682;9.016;2023-10-31T01:57:28;13.60;;;12.50;;
3405;SDS011;10008;48.682;9.016;2023-10-31T01:59:53;13.43;;;12.43;;
3405;SDS011;10008;48.682;9.016;2023-10-31T02:02:21;13.47;;;12.43;;
3405;SDS011;10008;48.682;9.016;2023-10-31T02:04:50;12.97;;;12.07;;
3405;SDS011;10008;48.682;9.016;2023-10-31T02:07:16;12.97;;;11.97;;
3405;SDS011;10008;48.682;9.016;2023-10-31T02:09:42;13.40;;;12.40;;
3405;SDS011;10008;48.682;9.016;2023-10-31T02:12:08;13.13;;;12.23;;
3405;SDS011;10008;48.682;9.016;2023-10-31T02:14:34;13.43;;;12.30;;
3405;SDS011;10008;48.682;9.016;2023-10-31T02:16:59;13.10;;;12.00;;
3405;SDS011;10008;48.682;9.016;2023-10-31T02:19:26;13.60;;;12.50;;
3405;SDS011;10008;48.682;9.016;2023-10-31T02:21:52;13.50;;;12.50;;
3405;SDS011;10008;48.682;9.016;2023-10-31T02:24:17;13.73;;;12.63;;
3405;SDS011;10008;48.682;9.016;2023-10-31T02:26:43;13.23;;;12.20;;
3405;SDS011;10008;48.682;9.016;2023-10-31T02:29:09;13.60;;;12.53;;
3405;SDS011;10008;48.682;9.016;2023-10-31T02:31:34;12.43;;;11.53;;
3405;SDS011;10008;48.682;9.016;2023-10-31T02:34:00;12.57;;;11.67;;
3405;SDS011;10008;48.682;9.016;2023-10-31T02:36:26;12.40;;;11.40;;
3405;SDS011;10008;48.682;9.016;2023-10-31T02:38:52;12.87;;;11.87;;
3405;SDS011;10008;48.682;9.016;2023-10-31T02:41:18;12.00;;;11.20;;
3405;SDS011;10008;48.682;9.016;2023-10-31T02:43:43;12.33;;;11.53;;
3405;SDS011;10008;48.682;9.016;2023-10-31T02:46:09;12.30;;;11.40;;
3405;SDS011;10008;48.682;9.016;2023-10-31T02:48:37;11.80;;;11.00;;
3405;SDS011;10008;48.682;9.016;2023-10-31T02:51:06;11.50;;;10.70;;
3405;SDS011;10008;48.682;9.016;2023-10-31T02:53:33;11.60;;;10.80;;
3405;SDS011;10008;48.682;9.016;2023-10-31T02:55:59;11.67;;;10.87;;
3405;SDS011;10008;48.682;9.016;2023-10-31T02:58:25;11.80;;;10.90;;
3405;SDS011;10008;48.682;9.016;2023-10-31T03:00:51;11.70;;;10.80;;
3405;SDS011;10008;48.682;9.016;2023-10-31T03:03:17;11.33;;;10.53;;
3405;SDS011;10008;48.682;9.016;2023-10-31T03:05:43;11.37;;;10.57;;
3405;SDS011;10008;48.682;9.016;2023-10-31T03:08:09;11.40;;;10.50;;
3405;SDS011;10008;48.682;9.016;2023-10-31T03:10:37;11.00;;;10.30;;
3405;SDS011;10008;48.682;9.016;2023-10-31T03:13:04;11.53;;;10.50;;
3405;SDS011;10008;48.682;9.016;2023-10-31T03:15:30;11.00;;;9.97;;
3405;SDS011;10008;48.682;9.016;2023-10-31T03:17:56;11.30;;;10.40;;
3405;SDS011;10008;48.682;9.016;2023-10-31T03:20:22;11.60;;;10.70;;
3405;SDS011;10008;48.682;9.016;2023-10-31T03:22:48;11.57;;;10.60;;
3405;SDS011;10008;48.682;9.016;2023-10-31T03:25:13;11.40;;;10.50;;
3405;SDS011;10008;48.682;9.016;2023-10-31T03:27:39;11.30;;;10.10;;
3405;SDS011;10008;48.682;9.016;2023-10-31T03:30:05;11.40;;;10.60;;
3405;SDS011;10008;48.682;9.016;2023-10-31T03:32:32;11.10;;;10.13;;
3405;SDS011;10008;48.682;9.016;2023-10-31T03:34:57;10.77;;;10.03;;
3405;SDS011;10008;48.682;9.016;2023-10-31T03:37:24;11.23;;;10.33;;
3405;SDS011;10008;48.682;9.016;2023-10-31T03:39:50;11.30;;;10.50;;
3405;SDS011;10008;48.682;9.016;2023-10-31T03:42:15;11.40;;;10.50;;
3405;SDS011;10008;48.682;9.016;2023-10-31T03:44:41;10.50;;;9.80;;
3405;SDS011;10008;48.682;9.016;2023-10-31T03:47:07;11.20;;;10.30;;
3405;SDS011;10008;48.682;9.016;2023-10-31T03:49:33;10.97;;;10.27;;
3405;SDS011;10008;48.682;9.016;2023-10-31T03:51:59;11.53;;;10.40;;
3405;SDS011;10008;48.682;9.016;2023-10-31T03:54:24;11.33;;;10.33;;
3405;SDS011;10008;48.682;9.016;2023-10-31T03:56:50;10.80;;;10.00;;
3405;SDS011;10008;48.682;9.016;2023-10-31T03:59:16;11.13;;;10.33;;
3405;SDS011;10008;48.682;9.016;2023-10-31T04:01:41;11.07;;;10.27;;
3405;SDS011;10008;48.682;9.016;2023-10-31T04:04:07;11.10;;;10.20;;
3405;SDS011;10008;48.682;9.016;2023-10-31T04:06:33;11.23;;;10.43;;
3405;SDS011;10008;48.682;9.016;2023-10-31T04:08:59;11.70;;;10.90;;
3405;SDS011;10008;48.682;9.016;2023-10-31T04:11:24;12.13;;;11.00;;
3405;SDS011;10008;48.682;9.016;2023-10-31T04:13:50;11.63;;;10.83;;
3405;SDS011;10008;48.682;9.016;2023-10-31T04:16:16;11.87;;;10.97;;
3405;SDS011;10008;48.682;9.016;2023-10-31T04:18:42;11.77;;;10.97;;
3405;SDS011;10008;48.682;9.016;2023-10-31T04:21:07;11.80;;;10.90;;
3405;SDS011;10008;48.682;9.016;2023-10-31T04:23:33;12.07;;;11.17;;
3405;SDS011;10008;48.682;9.016;2023-10-31T04:25:59;12.43;;;11.23;;
3405;SDS011;10008;48.682;9.016;2023-10-31T04:28:24;12.10;;;11.20;;
3405;SDS011;10008;48.682;9.016;2023-10-31T04:30:50;11.60;;;10.70;;
3405;SDS011;10008;48.682;9.016;2023-10-31T04:33:16;11.83;;;10.90;;
3405;SDS011;10008;48.682;9.016;2023-10-31T04:35:41;11.87;;;10.97;;
3405;SDS011;10008;48.682;9.016;2023-10-31T04:38:07;11.67;;;10.87;;
3405;SDS011;10008;48.682;9.016;2023-10-31T04:40:33;11.93;;;11.00;;
3405;SDS011;10008;48.682;9.016;2023-10-31T04:42:58;11.63;;;10.80;;
3405;SDS011;10008;48.682;9.016;2023-10-31T04:45:24;12.30;;;11.20;;
3405;SDS011;10008;48.682;9.016;2023-10-31T04:47:50;11.93;;;11.03;;
3405;SDS011;10008;48.682;9.016;2023-10-31T04:50:15;11.83;;;10.93;;
3405;SDS011;10008;48.682;9.016;2023-10-31T04:52:41;12.20;;;11.30;;
3405;SDS011;10008;48.682;9.016;2023-10-31T04:55:07;12.90;;;11.70;;
3405;SDS011;10008;48.682;9.016;2023-10-31T04:57:33;12.10;;;11.20;;
3405;SDS011;10008;48.682;9.016;2023-10-31T04:59:59;11.70;;;10.80;;
3405;SDS011;10008;48.682;9.016;2023-10-31T05:02:24;11.60;;;10.80;;
3405;SDS011;10008;48.682;9.016;2023-10-31T05:04:50;11.77;;;10.97;;
3405;SDS011;10008;48.682;9.016;2023-10-31T05:07:16;12.17;;;11.27;;
3405;SDS011;10008;48.682;9.016;2023-10-31T05:09:42;13.43;;;10.77;;
3405;SDS011;10008;48.682;9.016;2023-10-31T05:12:08;12.17;;;11.20;;
3405;SDS011;10008;48.682;9.016;2023-10-31T05:14:34;12.20;;;11.20;;
3405;SDS011;10008;48.682;9.016;2023-10-31T05:17:00;12.40;;;11.50;;
3405;SDS011;10008;48.682;9.016;2023-10-31T05:19:26;12.03;;;11.23;;
3405;SDS011;10008;48.682;9.016;2023-10-31T05:21:52;12.60;;;11.70;;
3405;SDS011;10008;48.682;9.016;2023-10-31T05:24:17;12.47;;;11.57;;
3405;SDS011;10008;48.682;9.016;2023-10-31T05:26:43;12.70;;;11.70;;
3405;SDS011;10008;48.682;9.016;2023-10-31T05:29:10;12.40;;;11.50;;
3405;SDS011;10008;48.682;9.016;2023-10-31T05:31:36;11.43;;;10.43;;
3405;SDS011;10008;48.682;9.016;2023-10-31T05:34:02;11.70;;;10.70;;
3405;SDS011;10008;48.682;9.016;2023-10-31T05:36:29;11.30;;;10.50;;
3405;SDS011;10008;48.682;9.016;2023-10-31T05:38:54;11.80;;;10.90;;
3405;SDS011;10008;48.682;9.016;2023-10-31T05:41:20;11.63;;;10.80;;
3405;SDS011;10008;48.682;9.016;2023-10-31T05:43:46;11.47;;;10.67;;
3405;SDS011;10008;48.682;9.016;2023-10-31T05:46:12;11.40;;;10.60;;
3405;SDS011;10008;48.682;9.016;2023-10-31T05:48:40;11.60;;;10.70;;
3405;SDS011;10008;48.682;9.016;2023-10-31T05:51:18;11.20;;;10.20;;
3405;SDS011;10008;48.682;9.016;2023-10-31T05:53:47;11.60;;;10.80;;
3405;SDS011;10008;48.682;9.016;2023-10-31T05:56:14;11.47;;;10.43;;
3405;SDS011;10008;48.682;9.016;2023-10-31T05:58:41;11.10;;;10.20;;
3405;SDS011;10008;48.682;9.016;2023-10-31T06:01:07;11.70;;;10.80;;
3405;SDS011;10008;48.682;9.016;2023-10-31T06:03:33;11.57;;;10.67;;
3405;SDS011;10008;48.682;9.016;2023-10-31T06:05:59;11.60;;;10.70;;
3405;SDS011;10008;48.682;9.016;2023-10-31T06:08:25;11.07;;;10.30;;
3405;SDS011;10008;48.682;9.016;2023-10-31T06:10:54;11.20;;;10.30;;
3405;SDS011;10008;48.682;9.016;2023-10-31T06:13:21;10.63;;;9.83;;
3405;SDS011;10008;48.682;9.016;2023-10-31T06:15:48;10.73;;;9.63;;
3405;SDS011;10008;48.682;9.016;2023-10-31T06:18:14;10.40;;;9.70;;
3405;SDS011;10008;48.682;9.016;2023-10-31T06:20:40;10.40;;;9.70;;
3405;SDS011;10008;48.682;9.016;2023-10-31T06:23:05;10.53;;;9.63;;
3405;SDS011;10008;48.682;9.016;2023-10-31T06:25:31;10.30;;;9.50;;
3405;SDS011;10008;48.682;9.016;2023-10-31T06:27:57;11.67;;;9.77;;
3405;SDS011;10008;48.682;9.016;2023-10-31T06:30:23;10.77;;;9.87;;
3405;SDS011;10008;48.682;9.016;2023-10-31T06:32:53;10.60;;;9.80;;
3405;SDS011;10008;48.682;9.016;2023-10-31T06:35:19;11.10;;;10.30;;
3405;SDS011;10008;48.682;9.016;2023-10-31T06:37:45;11.10;;;10.20;;
3405;SDS011;10008;48.682;9.016;2023-10-31T06:40:10;11.80;;;10.77;;
3405;SDS011;10008;48.682;9.016;2023-10-31T06:42:36;10.80;;;10.00;;
3405;SDS011;10008;48.682;9.016;2023-10-31T06:45:02;11.13;;;10.13;;
3405;SDS011;10008;48.682;9.016;2023-10-31T06:47:28;10.60;;;9.80;;
3405;SDS011;10008;48.682;9.016;2023-10-31T06:49:55;11.20;;;10.10;;
3405;SDS011;10008;48.682;9.016;2023-10-31T06:52:21;10.30;;;9.60;;
3405;SDS011;10008;48.682;9.016;2023-10-31T06:54:46;9.83;;;9.13;;
3405;SDS011;10008;48.682;9.016;2023-10-31T06:57:12;10.03;;;9.33;;
3405;SDS011;10008;48.682;9.016;2023-10-31T06:59:38;10.33;;;9.40;;
3405;SDS011;10008;48.682;9.016;2023-10-31T07:02:04;10.10;;;9.40;;
3405;SDS011;10008;48.682;9.016;2023-10-31T07:04:30;10.13;;;9.30;;
3405;SDS011;10008;48.682;9.016;2023-10-31T07:06:55;11.30;;;10.50;;
3405;SDS011;10008;48.682;9.016;2023-10-31T07:09:23;10.10;;;9.40;;
3405;SDS011;10008;48.682;9.016;2023-10-31T07:11:49;10.00;;;9.30;;
3405;SDS011;10008;48.682;9.016;2023-10-31T07:14:15;10.80;;;9.70;;
3405;SDS011;10008;48.682;9.016;2023-10-31T07:16:40;10.50;;;9.70;;
3405;SDS011;10008;48.682;9.016;2023-10-31T07:19:09;10.40;;;9.43;;
3405;SDS011;10008;48.682;9.016;2023-10-31T07:21:35;10.33;;;9.53;;
3405;SDS011;10008;48.682;9.016;2023-10-31T07:24:00;10.80;;;9.77;;
3405;SDS011;10008;48.682;9.016;2023-10-31T07:26:26;9.80;;;9.10;;
3405;SDS011;10008;48.682;9.016;2023-10-31T07:28:52;10.00;;;9.30;;
3405;SDS011;10008;48.682;9.016;2023-10-31T07:31:18;10.20;;;9.40;;
3405;SDS011;10008;48.682;9.016;2023-10-31T07:33:44;10.07;;;9.37;;
3405;SDS011;10008;48.682;9.016;2023-10-31T07:36:10;10.20;;;9.40;;
3405;SDS011;10008;48.682;9.016;2023-10-31T07:38:36;10.10;;;9.40;;
3405;SDS011;10008;48.682;9.016;2023-10-31T07:41:02;10.20;;;9.50;;
3405;SDS011;10008;48.682;9.016;2023-10-31T07:43:28;10.00;;;9.27;;
3405;SDS011;10008;48.682;9.016;2023-10-31T07:45:54;10.37;;;9.57;;
3405;SDS011;10008;48.682;9.016;2023-10-31T07:48:20;9.87;;;9.07;;
3405;SDS011;10008;48.682;9.016;2023-10-31T07:50:46;10.20;;;9.30;;
3405;SDS011;10008;48.682;9.016;2023-10-31T07:53:11;9.90;;;9.20;;
3405;SDS011;10008;48.682;9.016;2023-10-31T07:55:37;9.77;;;8.97;;
3405;SDS011;10008;48.682;9.016;2023-10-31T07:58:03;15.27;;;13.87;;
3405;SDS011;10008;48.682;9.016;2023-10-31T08:00:28;10.37;;;9.57;;
3405;SDS011;10008;48.682;9.016;2023-10-31T08:02:55;11.30;;;10.40;;
3405;SDS011;10008;48.682;9.016;2023-10-31T08:05:21;10.37;;;9.60;;
3405;SDS011;10008;48.682;9.016;2023-10-31T08:07:47;10.33;;;9.63;;
3405;SDS011;10008;48.682;9.016;2023-10-31T08:10:13;10.70;;;9.90;;
3405;SDS011;10008;48.682;9.016;2023-10-31T08:12:39;10.00;;;9.30;;
3405;SDS011;10008;48.682;9.016;2023-10-31T08:15:05;10.20;;;9.47;;
3405;SDS011;10008;48.682;9.016;2023-10-31T08:17:31;10.70;;;9.90;;
3405;SDS011;10008;48.682;9.016;2023-10-31T08:19:57;10.70;;;9.80;;
3405;SDS011;10008;48.682;9.016;2023-10-31T08:22:22;10.40;;;9.60;;
3405;SDS011;10008;48.682;9.016;2023-10-31T08:24:48;10.70;;;9.90;;
3405;SDS011;10008;48.682;9.016;2023-10-31T08:27:14;11.03;;;9.93;;
3405;SDS011;10008;48.682;9.016;2023-10-31T08:29:39;11.27;;;9.90;;
3405;SDS011;10008;48.682;9.016;2023-10-31T08:32:05;10.60;;;9.80;;
3405;SDS011;10008;48.682;9.016;2023-10-31T08:34:31;11.43;;;10.43;;
3405;SDS011;10008;48.682;9.016;2023-10-31T08:36:57;10.53;;;9.53;;
3405;SDS011;10008;48.682;9.016;2023-10-31T08:39:24;12.17;;;9.80;;
3405;SDS011;10008;48.682;9.016;2023-10-31T08:41:53;10.20;;;9.50;;
3405;SDS011;10008;48.682;9.016;2023-10-31T08:44:21;10.60;;;9.70;;
3405;SDS011;10008;48.682;9.016;2023-10-31T08:46:47;11.23;;;9.87;;
3405;SDS011;10008;48.682;9.016;2023-10-31T08:49:14;10.47;;;9.57;;
3405;SDS011;10008;48.682;9.016;2023-10-31T08:51:40;10.30;;;9.60;;
3405;SDS011;10008;48.682;9.016;2023-10-31T08:54:07;10.70;;;9.90;;
3405;SDS011;10008;48.682;9.016;2023-10-31T08:56:34;10.77;;;9.70;;
3405;SDS011;10008;48.682;9.016;2023-10-31T08:59:00;10.70;;;9.90;;
3405;SDS011;10008;48.682;9.016;2023-10-31T09:01:26;10.30;;;9.40;;
3405;SDS011;10008;48.682;9.016;2023-10-31T09:03:54;10.60;;;9.70;;
3405;SDS011;10008;48.682;9.016;2023-10-31T09:06:20;10.20;;;9.40;;
3405;SDS011;10008;48.682;9.016;2023-10-31T09:08:46;11.23;;;10.33;;
3405;SDS011;10008;48.682;9.016;2023-10-31T09:11:11;10.63;;;9.73;;
3405;SDS011;10008;48.682;9.016;2023-10-31T09:13:37;10.60;;;9.70;;
3405;SDS011;10008;48.682;9.016;2023-10-31T09:16:03;10.77;;;9.87;;
3405;SDS011;10008;48.682;9.016;2023-10-31T09:18:29;10.13;;;9.43;;
3405;SDS011;10008;48.682;9.016;2023-10-31T09:20:55;10.20;;;9.27;;
3405;SDS011;10008;48.682;9.016;2023-10-31T09:23:20;10.60;;;9.80;;
3405;SDS011;10008;48.682;9.016;2023-10-31T09:25:46;10.20;;;9.50;;
3405;SDS011;10008;48.682;9.016;2023-10-31T09:28:12;11.10;;;10.10;;
3405;SDS011;10008;48.682;9.016;2023-10-31T09:30:38;10.90;;;10.00;;
3405;SDS011;10008;48.682;9.016;2023-10-31T09:33:03;10.00;;;9.30;;
3405;SDS011;10008;48.682;9.016;2023-10-31T09:35:29;10.23;;;9.40;;
3405;SDS011;10008;48.682;9.016;2023-10-31T09:37:55;10.60;;;9.60;;
3405;SDS011;10008;48.682;9.016;2023-10-31T09:40:21;10.60;;;9.30;;
3405;SDS011;10008;48.682;9.016;2023-10-31T09:42:48;10.40;;;9.53;;
3405;SDS011;10008;48.682;9.016;2023-10-31T09:45:14;10.60;;;9.80;;
3405;SDS011;10008;48.682;9.016;2023-10-31T09:47:40;10.33;;;9.53;;
3405;SDS011;10008;48.682;9.016;2023-10-31T09:50:08;11.20;;;10.20;;
3405;SDS011;10008;48.682;9.016;2023-10-31T09:52:37;10.87;;;9.80;;
3405;SDS011;10008;48.682;9.016;2023-10-31T09:55:04;10.53;;;9.73;;
3405;SDS011;10008;48.682;9.016;2023-10-31T09:57:30;11.03;;;10.13;;
3405;SDS011;10008;48.682;9.016;2023-10-31T09:59:56;10.43;;;9.63;;
3405;SDS011;10008;48.682;9.016;2023-10-31T10:02:22;11.70;;;10.60;;
3405;SDS011;10008;48.682;9.016;2023-10-31T10:04:49;11.47;;;10.50;;
3405;SDS011;10008;48.682;9.016;2023-10-31T10:07:15;10.63;;;9.73;;
3405;SDS011;10008;48.682;9.016;2023-10-31T10:09:43;11.40;;;10.20;;
3405;SDS011;10008;48.682;9.016;2023-10-31T10:12:13;11.43;;;10.27;;
3405;SDS011;10008;48.682;9.016;2023-10-31T10:14:40;10.97;;;10.00;;
3405;SDS011;10008;48.682;9.016;2023-10-31T10:17:20;10.80;;;9.80;;
3405;SDS011;10008;48.682;9.016;2023-10-31T10:19:47;10.70;;;9.60;;
3405;SDS011;10008;48.682;9.016;2023-10-31T10:22:29;10.63;;;9.83;;
3405;SDS011;10008;48.682;9.016;2023-10-31T10:24:55;10.77;;;9.87;;
3405;SDS011;10008;48.682;9.016;2023-10-31T10:27:20;10.90;;;9.90;;
3405;SDS011;10008;48.682;9.016;2023-10-31T10:29:46;10.40;;;9.57;;
3405;SDS011;10008;48.682;9.016;2023-10-31T10:32:12;11.33;;;10.33;;
3405;SDS011;10008;48.682;9.016;2023-10-31T10:34:38;11.03;;;10.00;;
3405;SDS011;10008;48.682;9.016;2023-10-31T10:37:07;12.30;;;10.70;;
3405;SDS011;10008;48.682;9.016;2023-10-31T10:39:33;10.50;;;9.70;;
3405;SDS011;10008;48.682;9.016;2023-10-31T10:42:01;10.37;;;9.47;;
3405;SDS011;10008;48.682;9.016;2023-10-31T10:44:32;10.73;;;9.63;;
3405;SDS011;10008;48.682;9.016;2023-10-31T10:47:03;10.50;;;9.60;;
3405;SDS011;10008;48.682;9.016;2023-10-31T10:49:32;11.17;;;10.07;;
3405;SDS011;10008;48.682;9.016;2023-10-31T10:52:23;10.20;;;9.40;;
3405;SDS011;10008;48.682;9.016;2023-10-31T10:59:51;10.40;;;9.30;;
3405;SDS011;10008;48.682;9.016;2023-10-31T11:02:21;10.53;;;9.63;;
3405;SDS011;10008;48.682;9.016;2023-10-31T11:04:48;10.10;;;9.40;;
3405;SDS011;10008;48.682;9.016;2023-10-31T11:07:15;10.30;;;9.40;;
3405;SDS011;10008;48.682;9.016;2023-10-31T11:09:42;9.60;;;8.90;;
3405;SDS011;10008;48.682;9.016;2023-10-31T11:12:10;9.63;;;8.93;;
3405;SDS011;10008;48.682;9.016;2023-10-31T11:14:36;10.17;;;9.47;;
3405;SDS011;10008;48.682;9.016;2023-10-31T11:17:06;10.27;;;9.40;;
3405;SDS011;10008;48.682;9.016;2023-10-31T11:19:59;10.20;;;9.30;;
3405;SDS011;10008;48.682;9.016;2023-10-31T11:22:36;10.17;;;9.20;;
3405;SDS011;10008;48.682;9.016;2023-10-31T11:25:03;10.30;;;9.50;;
3405;SDS011;10008;48.682;9.016;2023-10-31T11:27:29;10.00;;;9.20;;
3405;SDS011;10008;48.682;9.016;2023-10-31T11:30:00;9.73;;;9.03;;
3405;SDS011;10008;48.682;9.016;2023-10-31T11:32:26;10.30;;;9.50;;
3405;SDS011;10008;48.682;9.016;2023-10-31T11:34:52;10.10;;;9.20;;
3405;SDS011;10008;48.682;9.016;2023-10-31T11:37:24;9.60;;;8.90;;
3405;SDS011;10008;48.682;9.016;2023-10-31T11:42:43;10.23;;;9.50;;
3405;SDS011;10008;48.682;9.016;2023-10-31T11:45:11;10.10;;;9.37;;
3405;SDS011;10008;48.682;9.016;2023-10-31T11:47:47;10.20;;;9.50;;
3405;SDS011;10008;48.682;9.016;2023-10-31T11:50:14;10.70;;;9.60;;
3405;SDS011;10008;48.682;9.016;2023-10-31T11:52:40;10.47;;;9.57;;
3405;SDS011;10008;48.682;9.016;2023-10-31T11:55:10;10.40;;;9.50;;
3405;SDS011;10008;48.682;9.016;2023-10-31T11:57:36;10.47;;;9.67;;
3405;SDS011;10008;48.682;9.016;2023-10-31T12:00:03;10.70;;;9.80;;
3405;SDS011;10008;48.682;9.016;2023-10-31T12:02:37;10.20;;;9.50;;
3405;SDS011;10008;48.682;9.016;2023-10-31T12:05:07;10.50;;;9.80;;
3405;SDS011;10008;48.682;9.016;2023-10-31T12:07:46;11.00;;;10.10;;
3405;SDS011;10008;48.682;9.016;2023-10-31T12:10:12;11.50;;;10.50;;
3405;SDS011;10008;48.682;9.016;2023-10-31T12:12:38;11.63;;;10.63;;
3405;SDS011;10008;48.682;9.016;2023-10-31T12:15:05;11.57;;;10.70;;
3405;SDS011;10008;48.682;9.016;2023-10-31T12:17:34;11.33;;;10.43;;
3405;SDS011;10008;48.682;9.016;2023-10-31T12:20:04;10.97;;;10.17;;
3405;SDS011;10008;48.682;9.016;2023-10-31T12:22:32;11.97;;;11.00;;
3405;SDS011;10008;48.682;9.016;2023-10-31T12:25:01;12.00;;;10.90;;
3405;SDS011;10008;48.682;9.016;2023-10-31T12:27:49;11.43;;;10.53;;
3405;SDS011;10008;48.682;9.016;2023-10-31T12:30:18;11.00;;;10.20;;
3405;SDS011;10008;48.682;9.016;2023-10-31T12:32:45;10.83;;;9.93;;
3405;SDS011;10008;48.682;9.016;2023-10-31T12:35:22;11.10;;;10.30;;
3405;SDS011;10008;48.682;9.016;2023-10-31T12:37:49;10.60;;;9.80;;
3405;SDS011;10008;48.682;9.016;2023-10-31T12:40:19;10.40;;;9.70;;
3405;SDS011;10008;48.682;9.016;2023-10-31T12:42:46;10.30;;;9.60;;
3405;SDS011;10008;48.682;9.016;2023-10-31T12:45:14;10.97;;;10.00;;
3405;SDS011;10008;48.682;9.016;2023-10-31T12:47:42;11.37;;;10.47;;
3405;SDS011;10008;48.682;9.016;2023-10-31T12:50:17;11.57;;;10.67;;
3405;SDS011;10008;48.682;9.016;2023-10-31T12:52:50;11.20;;;10.40;;
3405;SDS011;10008;48.682;9.016;2023-10-31T12:55:17;11.10;;;10.20;;
3405;SDS011;10008;48.682;9.016;2023-10-31T12:57:45;10.43;;;9.63;;
3405;SDS011;10008;48.682;9.016;2023-10-31T13:00:15;11.00;;;10.00;;
3405;SDS011;10008;48.682;9.016;2023-10-31T13:02:49;10.23;;;9.50;;
3405;SDS011;10008;48.682;9.016;2023-10-31T13:05:15;10.10;;;9.40;;
3405;SDS011;10008;48.682;9.016;2023-10-31T13:07:48;9.70;;;9.00;;
3405;SDS011;10008;48.682;9.016;2023-10-31T13:10:16;9.80;;;9.10;;
3405;SDS011;10008;48.682;9.016;2023-10-31T13:12:49;10.87;;;9.60;;
3405;SDS011;10008;48.682;9.016;2023-10-31T13:15:15;9.67;;;8.97;;
3405;SDS011;10008;48.682;9.016;2023-10-31T13:17:43;10.10;;;9.20;;
3405;SDS011;10008;48.682;9.016;2023-10-31T13:20:10;10.37;;;9.50;;
3405;SDS011;10008;48.682;9.016;2023-10-31T13:22:37;9.97;;;9.27;;
3405;SDS011;10008;48.682;9.016;2023-10-31T13:25:03;9.97;;;9.27;;
3405;SDS011;10008;48.682;9.016;2023-10-31T13:27:32;10.10;;;9.40;;
3405;SDS011;10008;48.682;9.016;2023-10-31T13:30:00;9.90;;;9.20;;
3405;SDS011;10008;48.682;9.016;2023-10-31T13:32:27;10.30;;;9.50;;
3405;SDS011;10008;48.682;9.016;2023-10-31T13:34:52;10.13;;;9.43;;
3405;SDS011;10008;48.682;9.016;2023-10-31T13:37:18;10.00;;;9.20;;
3405;SDS011;10008;48.682;9.016;2023-10-31T13:39:44;10.00;;;9.20;;
3405;SDS011;10008;48.682;9.016;2023-10-31T13:42:10;9.70;;;9.00;;
3405;SDS011;10008;48.682;9.016;2023-10-31T13:44:36;10.10;;;9.30;;
3405;SDS011;10008;48.682;9.016;2023-10-31T13:47:02;9.70;;;9.00;;
3405;SDS011;10008;48.682;9.016;2023-10-31T13:49:28;10.17;;;9.40;;
3405;SDS011;10008;48.682;9.016;2023-10-31T13:51:54;9.93;;;9.20;;
3405;SDS011;10008;48.682;9.016;2023-10-31T13:54:20;10.50;;;9.70;;
3405;SDS011;10008;48.682;9.016;2023-10-31T13:56:46;12.43;;;9.23;;
3405;SDS011;10008;48.682;9.016;2023-10-31T13:59:13;10.40;;;9.60;;
3405;SDS011;10008;48.682;9.016;2023-10-31T14:01:40;10.20;;;9.40;;
3405;SDS011;10008;48.682;9.016;2023-10-31T14:04:06;10.70;;;9.80;;
3405;SDS011;10008;48.682;9.016;2023-10-31T14:06:33;10.50;;;9.60;;
3405;SDS011;10008;48.682;9.016;2023-10-31T14:08:59;10.40;;;9.37;;
3405;SDS011;10008;48.682;9.016;2023-10-31T14:11:25;10.20;;;9.30;;
3405;SDS011;10008;48.682;9.016;2023-10-31T14:13:51;10.40;;;9.60;;
3405;SDS011;10008;48.682;9.016;2023-10-31T14:16:17;10.23;;;9.43;;
3405;SDS011;10008;48.682;9.016;2023-10-31T14:18:44;10.50;;;9.70;;
3405;SDS011;10008;48.682;9.016;2023-10-31T14:21:11;10.90;;;9.93;;
3405;SDS011;10008;48.682;9.016;2023-10-31T14:23:37;12.30;;;11.30;;
3405;SDS011;10008;48.682;9.016;2023-10-31T14:26:03;11.67;;;10.77;;
3405;SDS011;10008;48.682;9.016;2023-10-31T14:28:30;10.73;;;9.80;;
3405;SDS011;10008;48.682;9.016;2023-10-31T14:30:55;10.50;;;9.70;;
3405;SDS011;10008;48.682;9.016;2023-10-31T14:33:21;10.97;;;10.07;;
3405;SDS011;10008;48.682;9.016;2023-10-31T14:35:47;10.77;;;9.90;;
3405;SDS011;10008;48.682;9.016;2023-10-31T14:38:13;10.70;;;9.90;;
3405;SDS011;10008;48.682;9.016;2023-10-31T14:40:38;11.00;;;10.10;;
3405;SDS011;10008;48.682;9.016;2023-10-31T14:43:04;10.90;;;10.10;;
3405;SDS011;10008;48.682;9.016;2023-10-31T14:45:30;10.40;;;9.60;;